Главная страница
METAR-TAF:

METAR-TAF

Аэропорты :

Курумоч

Самара, Россия

широта: 53-12N, долгота: 050-09E, высота над уровнем моря: 44 м

Текущие метеонаблюдения

Эта сводка был подготовлена 24 минут назад, в 02:30 UTC
Ветер 6 Узел от западный-юго-западный
Температура 15°C
Влажность 72%
Давление 1007 hPa
Видимость 10 км и более
Нет облачности ниже 1500 м, и нет кучево-дождевой облачности

METAR: UWWW 210230Z 25003MPS CAVOK 15/10 Q1007 R33/CLRD60 NOSIG RMK QFE744/0993

Время: 06:54 (02:54 UTC)

Прогноз

Эта сводка был подготовлена 54 минут назад, в 02:00 UTC
Прогноз действительный с 21-го 03 UTC до 22-го 03 UTC
Ветер 12 Узел от западный с порывами до 23 Узел
Видимость 10 км и более
Отдельные облака на высоте 2000 фута
Рассеянная облачность на высоте 10000 фута
временами
С 21-го 03 UTC до 21-го 18 UTC
Ветер 27 Узел от северо-западный

TAF: UWWW 210200Z 2103/2203 27006G12MPS 9999 SCT020 BKN100 TX23/2111Z TN13/2202Z TEMPO 2103/2118 31014MPS

Метеонаблюдения и прогнозы для более 4000 аэропортов (сводки METAR и TAF).

Имеющиеся станции представлены на карте желтыми и красными точками.

Чтобы увидеть название станции, наведите на нее мышь.

Затем щелкните, чтобы увидеть метеонаблюдения и метеопрогнозы.

Управление картой: чтобы увеличить масштаб, щелкните зеленые кнопки с черным крестиком; чтобы уменьшить масштаб, щелкните зеленую кнопку с тире; для просмотра соседних карт щелкайте зеленые стрелки.


METAR-TAF: